Time;durP1;ratioP1;P1;durP2;ratioP2;P2;SDS_P1;SDS_P2;PMS_P1;PMS_P2;Temp;Humidity;BMP_temperature;BMP_pressure;BME280_temperature;BME280_humidity;BME280_pressure;Samples;Min_cycle;Max_cycle;Signal;HPM_P1;HPM_P2
2022/06/05 00:02:10;;;;;;;;;;;;;;;;;;5114665;28;19935;-57
2022/06/05 00:04:36;;;;;;;;;;;;;;;;;;5114430;28;19908;-59
2022/06/05 00:07:03;;;;;;;;;;;;;;;;;;5114484;28;19912;-58
2022/06/05 00:09:29;;;;;;;;;;;;;;;;;;5114849;28;19951;-57
2022/06/05 00:11:56;;;;;;;;;;;;;;;;;;5114249;28;19915;-59
2022/06/05 00:14:22;;;;;;;;;;;;;;;;;;5114118;28;19908;-59
2022/06/05 00:16:49;;;;;;;;;;;;;;;;;;5114485;28;19912;-51
2022/06/05 00:19:15;;;;;;;;;;;;;;;;;;5114446;28;19919;-59
2022/06/05 00:21:42;;;;;;;;;;;;;;;;;;5114343;28;19911;-59
2022/06/05 00:24:08;;;;;;;;;;;;;;;;;;5113651;28;19953;-59
2022/06/05 00:26:36;;;;;;;;;;;;;;;;;;5114257;28;19908;-59
2022/06/05 00:29:02;;;;;;;;;;;;;;;;;;5114207;28;20392;-59
2022/06/05 00:31:28;;;;;;;;;;;;;;;;;;5114119;28;19908;-57
2022/06/05 00:33:57;;;;;;;;;;;;;;;;;;5113644;28;20370;-56
2022/06/05 00:36:23;;;;;;;;;;;;;;;;;;5113560;28;19914;-55
2022/06/05 00:38:50;;;;;;;;;;;;;;;;;;5114029;28;19920;-56
2022/06/05 00:41:16;;;;;;;;;;;;;;;;;;5113944;28;20381;-47
2022/06/05 00:43:43;;;;;;;;;;;;;;;;;;5113760;28;19964;-52
2022/06/05 00:46:09;;;;;;;;;;;;;;;;;;5113753;28;19908;-53
2022/06/05 00:48:36;;;;;;;;;;;;;;;;;;5114022;28;20321;-53
2022/06/05 00:51:03;;;;;;;;;;;;;;;;;;5114719;28;19908;-47
2022/06/05 00:53:30;;;;;;;;;;;;;;;;;;5113247;28;20366;-43
2022/06/05 00:55:57;;;;;;;;;;;;;;;;;;5113425;28;19957;-46
2022/06/05 00:58:23;;;;;;;;;;;;;;;;;;5112084;28;20480;-53
2022/06/05 01:00:51;;;;;;;;;;;;;;;;;;5113881;28;20056;-49
2022/06/05 01:03:18;;;;;;;;;;;;;;;;;;5113749;27;20367;-49
2022/06/05 01:05:44;;;;;;;;;;;;;;;;;;5113529;28;19960;-57
2022/06/05 01:08:11;;;;;;;;;;;;;;;;;;5111669;28;19919;-54
2022/06/05 01:10:37;;;;;;;;;;;;;;;;;;5112807;28;19915;-44
2022/06/05 01:13:04;;;;;;;;;;;;;;;;;;5113229;28;19911;-42
2022/06/05 01:15:30;;;;;;;;;;;;;;;;;;5112259;28;20327;-49
2022/06/05 01:17:57;;;;;;;;;;;;;;;;;;5113244;28;20273;-46
2022/06/05 01:20:23;;;;;;;;;;;;;;;;;;5113432;28;19908;-49
2022/06/05 01:22:50;;;;;;;;;;;;;;;;;;5112867;28;19908;-59
2022/06/05 01:25:16;;;;;;;;;;;;;;;;;;5112544;28;19912;-57
2022/06/05 01:27:43;;;;;;;;;;;;;;;;;;5113052;28;19918;-53
2022/06/05 01:30:09;;;;;;;;;;;;;;;;;;5113131;28;20280;-55
2022/06/05 01:32:36;;;;;;;;;;;;;;;;;;5112812;28;19912;-44
2022/06/05 01:35:03;;;;;;;;;;;;;;;;;;5113019;28;19990;-46
2022/06/05 01:37:29;;;;;;;;;;;;;;;;;;5113037;28;19923;-49
2022/06/05 01:39:56;;;;;;;;;;;;;;;;;;5112948;27;20366;-45
2022/06/05 01:42:22;;;;;;;;;;;;;;;;;;5113131;28;19994;-48
2022/06/05 01:44:49;;;;;;;;;;;;;;;;;;5112893;28;19910;-45
2022/06/05 01:47:15;;;;;;;;;;;;;;;;;;5113039;28;20365;-47
2022/06/05 01:49:42;;;;;;;;;;;;;;;;;;5112459;28;19908;-44
2022/06/05 01:52:08;;;;;;;;;;;;;;;;;;5112458;28;19908;-48
2022/06/05 01:54:35;;;;;;;;;;;;;;;;;;5113074;28;19918;-47
2022/06/05 01:57:01;;;;;;;;;;;;;;;;;;5112458;28;19922;-49
2022/06/05 01:59:28;;;;;;;;;;;;;;;;;;5113198;27;19912;-53
2022/06/05 02:01:54;;;;;;;;;;;;;;;;;;5112926;28;19918;-49
2022/06/05 02:04:21;;;;;;;;;;;;;;;;;;5111720;28;19908;-47
2022/06/05 02:06:47;;;;;;;;;;;;;;;;;;5111735;28;19915;-59
2022/06/05 02:09:14;;;;;;;;;;;;;;;;;;5112712;28;20014;-54
2022/06/05 02:11:40;;;;;;;;;;;;;;;;;;5111586;28;19915;-51
2022/06/05 02:14:07;;;;;;;;;;;;;;;;;;5112257;28;19950;-58
2022/06/05 02:16:33;;;;;;;;;;;;;;;;;;5112304;28;20318;-54
2022/06/05 02:19:00;;;;;;;;;;;;;;;;;;5113019;28;19911;-60
2022/06/05 02:21:27;;;;;;;;;;;;;;;;;;5112306;28;19908;-56
2022/06/05 02:23:53;;;;;;;;;;;;;;;;;;5112080;28;19911;-44
2022/06/05 02:26:20;;;;;;;;;;;;;;;;;;5089467;28;19919;-53
2022/06/05 02:28:46;;;;;;;;;;;;;;;;;;5088475;28;19935;-42
2022/06/05 02:31:13;;;;;;;;;;;;;;;;;;5092295;28;20275;-46
2022/06/05 02:33:39;;;;;;;;;;;;;;;;;;5089455;28;20363;-46
2022/06/05 02:36:06;;;;;;;;;;;;;;;;;;5086411;28;20396;-54
2022/06/05 02:38:32;;;;;;;;;;;;;;;;;;5087376;28;19923;-44
2022/06/05 02:40:59;;;;;;;;;;;;;;;;;;5089319;28;19965;-43
2022/06/05 02:43:25;;;;;;;;;;;;;;;;;;5090540;28;19954;-40
2022/06/05 02:45:52;;;;;;;;;;;;;;;;;;5086533;28;19923;-55
2022/06/05 02:48:18;;;;;;;;;;;;;;;;;;5088541;28;20326;-50
2022/06/05 02:50:45;;;;;;;;;;;;;;;;;;5088990;28;20270;-45
2022/06/05 02:53:11;;;;;;;;;;;;;;;;;;5088869;28;20405;-44
2022/06/05 02:55:38;;;;;;;;;;;;;;;;;;5087182;28;19977;-45
2022/06/05 02:58:04;;;;;;;;;;;;;;;;;;5087667;28;19993;-46
2022/06/05 03:00:31;;;;;;;;;;;;;;;;;;5088436;28;19912;-47
2022/06/05 03:05:42;;;;;;;;;;;;;;;;;;5085351;28;19941;-40
2022/06/05 03:08:09;;;;;;;;;;;;;;;;;;5086255;28;19930;-48
2022/06/05 03:10:35;;;;;;;;;;;;;;;;;;5085004;28;19908;-45
2022/06/05 03:13:02;;;;;;;;;;;;;;;;;;5081094;28;19912;-44
2022/06/05 03:15:28;;;;;;;;;;;;;;;;;;5085478;28;19965;-45
2022/06/05 03:17:55;;;;;;;;;;;;;;;;;;5081498;28;20335;-55
2022/06/05 03:20:21;;;;;;;;;;;;;;;;;;5094898;28;20313;-55
2022/06/05 03:22:48;;;;;;;;;;;;;;;;;;5093802;28;19908;-55
2022/06/05 03:25:14;;;;;;;;;;;;;;;;;;5092995;28;19908;-49
2022/06/05 03:27:41;;;;;;;;;;;;;;;;;;5075613;28;19914;-56
2022/06/05 03:30:07;;;;;;;;;;;;;;;;;;5094089;28;19908;-58
2022/06/05 03:32:34;;;;;;;;;;;;;;;;;;5094468;28;20313;-51
2022/06/05 03:35:00;;;;;;;;;;;;;;;;;;5094820;28;19943;-51
2022/06/05 03:37:27;;;;;;;;;;;;;;;;;;5094454;28;19922;-50
2022/06/05 03:39:53;;;;;;;;;;;;;;;;;;5094724;28;19954;-57
2022/06/05 03:42:20;;;;;;;;;;;;;;;;;;5094997;28;19908;-55
2022/06/05 03:44:46;;;;;;;;;;;;;;;;;;5093978;28;19908;-52
2022/06/05 03:47:13;;;;;;;;;;;;;;;;;;5093885;28;20514;-58
2022/06/05 03:49:40;;;;;;;;;;;;;;;;;;5094637;28;19909;-51
2022/06/05 03:52:06;;;;;;;;;;;;;;;;;;5094404;28;19908;-60
2022/06/05 03:54:33;;;;;;;;;;;;;;;;;;5094964;28;19961;-58
2022/06/05 03:57:00;;;;;;;;;;;;;;;;;;5076229;28;19913;-61
2022/06/05 03:59:26;;;;;;;;;;;;;;;;;;5094228;28;20701;-58
2022/06/05 04:01:53;;;;;;;;;;;;;;;;;;5094483;28;19912;-56
2022/06/05 04:04:19;;;;;;;;;;;;;;;;;;5094390;28;19909;-54
2022/06/05 04:06:46;;;;;;;;;;;;;;;;;;5093812;28;19944;-53
2022/06/05 04:09:16;;;;;;;;;;;;;;;;;;5092767;28;20230;-56
2022/06/05 04:11:43;;;;;;;;;;;;;;;;;;5093757;28;19992;-53
2022/06/05 04:14:09;;;;;;;;;;;;;;;;;;5094148;28;19912;-54
2022/06/05 04:16:36;;;;;;;;;;;;;;;;;;5093816;28;19912;-51
2022/06/05 04:19:02;;;;;;;;;;;;;;;;;;5093649;28;20286;-59
2022/06/05 04:21:29;;;;;;;;;;;;;;;;;;5094096;28;19991;-56
2022/06/05 04:23:55;;;;;;;;;;;;;;;;;;5093847;28;20393;-53
2022/06/05 04:26:22;;;;;;;;;;;;;;;;;;5075499;28;19912;-52
2022/06/05 04:28:48;;;;;;;;;;;;;;;;;;5093348;28;20002;-46
2022/06/05 04:31:15;;;;;;;;;;;;;;;;;;5093663;28;20386;-44
2022/06/05 04:33:42;;;;;;;;;;;;;;;;;;5075170;28;19912;-58
2022/06/05 04:36:08;;;;;;;;;;;;;;;;;;5093687;28;20371;-51
2022/06/05 04:38:35;;;;;;;;;;;;;;;;;;5093227;28;19916;-52
2022/06/05 04:41:01;;;;;;;;;;;;;;;;;;5093387;28;19919;-54
2022/06/05 04:43:28;;;;;;;;;;;;;;;;;;5093333;28;19931;-53
2022/06/05 04:45:54;;;;;;;;;;;;;;;;;;5092692;28;20001;-61
2022/06/05 04:48:21;;;;;;;;;;;;;;;;;;5093269;28;19908;-52
2022/06/05 04:50:47;;;;;;;;;;;;;;;;;;5093160;28;19915;-59
2022/06/05 04:53:14;;;;;;;;;;;;;;;;;;5093101;28;19908;-53
2022/06/05 04:55:40;;;;;;;;;;;;;;;;;;5092717;28;20422;-46
2022/06/05 04:58:07;;;;;;;;;;;;;;;;;;5092847;28;19977;-50
2022/06/05 05:00:33;;;;;;;;;;;;;;;;;;5092624;28;20287;-51
2022/06/05 05:03:00;;;;;;;;;;;;;;;;;;5074862;28;19984;-49
2022/06/05 05:05:26;;;;;;;;;;;;;;;;;;5083871;28;20401;-46
2022/06/05 05:07:53;;;;;;;;;;;;;;;;;;5082904;28;19943;-43
2022/06/05 05:10:19;;;;;;;;;;;;;;;;;;5080785;28;20003;-49
2022/06/05 05:12:46;;;;;;;;;;;;;;;;;;5082271;28;19953;-45
2022/06/05 05:15:12;;;;;;;;;;;;;;;;;;5084374;28;20307;-43
2022/06/05 05:17:39;;;;;;;;;;;;;;;;;;5083686;28;19920;-47
2022/06/05 05:20:05;;;;;;;;;;;;;;;;;;5084371;28;19908;-49
2022/06/05 05:22:37;;;;;;;;;;;;;;;;;;5076676;28;19917;-44
2022/06/05 05:25:04;;;;;;;;;;;;;;;;;;5086846;28;19908;-50
2022/06/05 05:27:30;;;;;;;;;;;;;;;;;;5083999;28;19908;-46
2022/06/05 05:29:57;;;;;;;;;;;;;;;;;;5063233;28;19908;-48
2022/06/05 05:32:23;;;;;;;;;;;;;;;;;;5080881;28;20058;-57
2022/06/05 05:34:50;;;;;;;;;;;;;;;;;;5083899;28;20353;-51
2022/06/05 05:37:16;;;;;;;;;;;;;;;;;;5078446;28;20070;-55
2022/06/05 05:42:30;;;;;;;;;;;;;;;;;;5081580;28;19973;-52
2022/06/05 05:44:56;;;;;;;;;;;;;;;;;;5077008;28;19976;-47
2022/06/05 05:47:23;;;;;;;;;;;;;;;;;;5081954;28;20003;-49
2022/06/05 05:49:49;;;;;;;;;;;;;;;;;;5087565;28;20371;-49
2022/06/05 05:52:16;;;;;;;;;;;;;;;;;;5075981;28;19917;-48
2022/06/05 05:54:42;;;;;;;;;;;;;;;;;;5081989;28;20278;-47
2022/06/05 05:57:09;;;;;;;;;;;;;;;;;;5087475;28;19976;-50
2022/06/05 05:59:35;;;;;;;;;;;;;;;;;;5074919;28;19917;-41
2022/06/05 06:02:02;;;;;;;;;;;;;;;;;;5081555;28;19919;-54
2022/06/05 06:04:28;;;;;;;;;;;;;;;;;;5083933;28;19908;-57
2022/06/05 06:06:55;;;;;;;;;;;;;;;;;;5076035;28;19908;-57
2022/06/05 06:09:21;;;;;;;;;;;;;;;;;;5082662;28;19920;-49
2022/06/05 06:11:48;;;;;;;;;;;;;;;;;;5084689;28;20324;-42
2022/06/05 06:14:14;;;;;;;;;;;;;;;;;;5074015;28;19912;-51
2022/06/05 06:16:41;;;;;;;;;;;;;;;;;;5080955;28;19954;-41
2022/06/05 06:19:08;;;;;;;;;;;;;;;;;;5088846;28;19927;-47
2022/06/05 06:21:34;;;;;;;;;;;;;;;;;;5057854;28;19908;-46
2022/06/05 06:24:00;;;;;;;;;;;;;;;;;;5079183;28;19909;-52
2022/06/05 06:26:27;;;;;;;;;;;;;;;;;;5085826;28;19935;-48
2022/06/05 06:28:53;;;;;;;;;;;;;;;;;;5076295;28;19951;-45
2022/06/05 06:31:20;;;;;;;;;;;;;;;;;;5081615;28;19912;-53
2022/06/05 06:33:48;;;;;;;;;;;;;;;;;;5079719;28;20018;-46
2022/06/05 06:36:14;;;;;;;;;;;;;;;;;;5057279;28;20009;-46
2022/06/05 06:38:41;;;;;;;;;;;;;;;;;;5082967;28;19923;-60
2022/06/05 06:41:07;;;;;;;;;;;;;;;;;;5081719;28;20205;-51
2022/06/05 06:43:34;;;;;;;;;;;;;;;;;;5070802;28;19924;-51
2022/06/05 06:46:00;;;;;;;;;;;;;;;;;;5080724;28;20275;-56
2022/06/05 06:48:27;;;;;;;;;;;;;;;;;;5084507;28;19908;-52
2022/06/05 06:50:53;;;;;;;;;;;;;;;;;;5064297;28;20283;-55
2022/06/05 06:53:20;;;;;;;;;;;;;;;;;;5078721;28;20355;-52
2022/06/05 06:55:46;;;;;;;;;;;;;;;;;;5089734;28;19998;-52
2022/06/05 06:58:13;;;;;;;;;;;;;;;;;;5087626;28;19916;-45
2022/06/05 07:00:39;;;;;;;;;;;;;;;;;;5084247;28;19912;-52
2022/06/05 07:03:06;;;;;;;;;;;;;;;;;;5084275;28;20016;-48
2022/06/05 07:05:32;;;;;;;;;;;;;;;;;;5088475;28;19909;-50
2022/06/05 07:07:59;;;;;;;;;;;;;;;;;;5076067;28;20368;-57
2022/06/05 07:10:25;;;;;;;;;;;;;;;;;;5074754;28;19968;-49
2022/06/05 07:12:52;;;;;;;;;;;;;;;;;;5073379;28;19999;-48
2022/06/05 07:15:19;;;;;;;;;;;;;;;;;;5071548;28;19923;-49
2022/06/05 07:17:46;;;;;;;;;;;;;;;;;;5075278;28;19919;-56
2022/06/05 07:20:12;;;;;;;;;;;;;;;;;;5074874;28;19920;-58
2022/06/05 07:22:39;;;;;;;;;;;;;;;;;;5074800;28;19916;-49
2022/06/05 07:25:05;;;;;;;;;;;;;;;;;;5075027;28;19916;-48
2022/06/05 07:27:32;;;;;;;;;;;;;;;;;;5074456;28;19991;-55
2022/06/05 07:29:58;;;;;;;;;;;;;;;;;;5074733;28;19934;-51
2022/06/05 07:32:24;;;;;;;;;;;;;;;;;;5074398;28;19956;-58
2022/06/05 07:34:51;;;;;;;;;;;;;;;;;;5074155;28;19939;-45
2022/06/05 07:37:17;;;;;;;;;;;;;;;;;;5074179;28;20378;-59
2022/06/05 07:39:44;;;;;;;;;;;;;;;;;;5074385;28;19909;-52
2022/06/05 07:42:10;;;;;;;;;;;;;;;;;;5074509;28;19970;-49
2022/06/05 07:44:37;;;;;;;;;;;;;;;;;;5074442;28;19916;-55
2022/06/05 07:47:04;;;;;;;;;;;;;;;;;;5074475;28;19951;-55
2022/06/05 07:49:30;;;;;;;;;;;;;;;;;;5074431;28;19971;-49
2022/06/05 07:54:41;;;;;;;;;;;;;;;;;;5074444;28;19989;-47
2022/06/05 07:57:08;;;;;;;;;;;;;;;;;;5074409;28;19916;-49
2022/06/05 07:59:34;;;;;;;;;;;;;;;;;;5074350;28;19912;-45
2022/06/05 08:02:03;;;;;;;;;;;;;;;;;;5074077;28;19961;-61
2022/06/05 08:04:30;;;;;;;;;;;;;;;;;;5073822;28;19962;-56
2022/06/05 08:06:57;;;;;;;;;;;;;;;;;;5076311;28;20003;-54
2022/06/05 08:09:23;;;;;;;;;;;;;;;;;;5094483;28;20339;-59
2022/06/05 08:11:50;;;;;;;;;;;;;;;;;;5094223;28;19969;-55
2022/06/05 08:14:16;;;;;;;;;;;;;;;;;;5093043;28;20322;-54
2022/06/05 08:16:46;;;;;;;;;;;;;;;;;;5092641;28;19964;-55
2022/06/05 08:19:13;;;;;;;;;;;;;;;;;;5093453;28;19923;-55
2022/06/05 08:21:40;;;;;;;;;;;;;;;;;;5093824;28;19913;-58
2022/06/05 08:24:06;;;;;;;;;;;;;;;;;;5094380;28;19963;-52
2022/06/05 08:26:33;;;;;;;;;;;;;;;;;;5094116;28;19959;-54
2022/06/05 08:29:00;;;;;;;;;;;;;;;;;;5094409;28;19908;-55
2022/06/05 08:31:27;;;;;;;;;;;;;;;;;;5094287;28;19934;-50
2022/06/05 08:33:53;;;;;;;;;;;;;;;;;;5093640;28;20007;-55
2022/06/05 08:36:20;;;;;;;;;;;;;;;;;;5093905;28;19915;-54
2022/06/05 08:41:31;;;;;;;;;;;;;;;;;;5094541;28;19952;-56
2022/06/05 08:43:58;;;;;;;;;;;;;;;;;;5093394;28;19933;-50
2022/06/05 08:46:24;;;;;;;;;;;;;;;;;;5093434;28;19969;-52
2022/06/05 08:48:51;;;;;;;;;;;;;;;;;;5093724;28;19909;-56
2022/06/05 08:51:18;;;;;;;;;;;;;;;;;;5093750;28;19916;-52
2022/06/05 08:53:45;;;;;;;;;;;;;;;;;;5093115;28;19943;-59
2022/06/05 08:56:11;;;;;;;;;;;;;;;;;;5093740;28;19938;-47
2022/06/05 08:58:38;;;;;;;;;;;;;;;;;;5093483;28;19974;-52
2022/06/05 09:01:04;;;;;;;;;;;;;;;;;;5092355;28;20258;-39
2022/06/05 09:03:31;;;;;;;;;;;;;;;;;;5092866;28;19915;-40
2022/06/05 09:05:57;;;;;;;;;;;;;;;;;;5093257;28;19965;-39
2022/06/05 09:08:24;;;;;;;;;;;;;;;;;;5093430;28;20351;-38
2022/06/05 09:10:50;;;;;;;;;;;;;;;;;;5093504;28;19974;-49
2022/06/05 09:13:17;;;;;;;;;;;;;;;;;;5103077;28;20006;-54
2022/06/05 09:15:43;;;;;;;;;;;;;;;;;;5112988;28;19912;-47
2022/06/05 09:18:10;;;;;;;;;;;;;;;;;;5113702;28;20370;-44
2022/06/05 09:20:36;;;;;;;;;;;;;;;;;;5113508;28;20021;-45
2022/06/05 09:23:03;;;;;;;;;;;;;;;;;;5113624;28;19903;-51
2022/06/05 09:25:30;;;;;;;;;;;;;;;;;;5113429;28;19916;-42
2022/06/05 09:27:56;;;;;;;;;;;;;;;;;;5113175;28;20018;-50
2022/06/05 09:30:24;;;;;;;;;;;;;;;;;;5113454;27;20274;-43
2022/06/05 09:32:51;;;;;;;;;;;;;;;;;;5111991;28;20112;-50
2022/06/05 09:35:17;;;;;;;;;;;;;;;;;;5113410;28;19912;-58
2022/06/05 09:37:43;;;;;;;;;;;;;;;;;;5113281;28;19931;-58
2022/06/05 09:40:10;;;;;;;;;;;;;;;;;;5113273;28;19992;-45
2022/06/05 09:42:36;;;;;;;;;;;;;;;;;;5113017;28;19912;-54
2022/06/05 09:45:03;;;;;;;;;;;;;;;;;;5113189;28;19908;-56
2022/06/05 09:47:29;;;;;;;;;;;;;;;;;;5113209;28;19995;-58
2022/06/05 09:49:58;;;;;;;;;;;;;;;;;;5113089;28;19935;-55
2022/06/05 09:52:24;;;;;;;;;;;;;;;;;;5113122;28;19908;-55
2022/06/05 09:54:52;;;;;;;;;;;;;;;;;;5113112;28;19919;-59
2022/06/05 10:00:03;;;;;;;;;;;;;;;;;;5113169;28;20018;-59
2022/06/05 10:02:30;;;;;;;;;;;;;;;;;;5113022;28;19908;-61
2022/06/05 10:04:56;;;;;;;;;;;;;;;;;;5112814;28;19994;-47
2022/06/05 10:07:23;;;;;;;;;;;;;;;;;;5113142;28;19919;-47
2022/06/05 10:09:50;;;;;;;;;;;;;;;;;;5109034;28;19911;-50
2022/06/05 10:12:16;;;;;;;;;;;;;;;;;;5112400;28;19947;-52
2022/06/05 10:14:43;;;;;;;;;;;;;;;;;;5112172;28;19908;-56
2022/06/05 10:17:09;;;;;;;;;;;;;;;;;;5112542;28;19911;-62
2022/06/05 10:19:36;;;;;;;;;;;;;;;;;;5112722;28;19912;-58
2022/06/05 10:22:03;;;;;;;;;;;;;;;;;;5113027;28;19981;-51
2022/06/05 10:24:30;;;;;;;;;;;;;;;;;;5112705;28;19908;-59
2022/06/05 10:26:56;;;;;;;;;;;;;;;;;;5115179;28;19916;-55
2022/06/05 10:29:23;;;;;;;;;;;;;;;;;;5117341;28;19915;-55
2022/06/05 10:31:49;;;;;;;;;;;;;;;;;;5117052;28;20003;-55
2022/06/05 10:34:16;;;;;;;;;;;;;;;;;;5117002;28;19955;-56
2022/06/05 10:36:42;;;;;;;;;;;;;;;;;;5116726;27;19957;-53
2022/06/05 10:39:09;;;;;;;;;;;;;;;;;;5116561;27;19916;-58
2022/06/05 10:41:35;;;;;;;;;;;;;;;;;;5117083;28;20002;-58
2022/06/05 10:44:03;;;;;;;;;;;;;;;;;;5116874;28;19922;-59
2022/06/05 10:46:29;;;;;;;;;;;;;;;;;;5116804;28;19998;-57
2022/06/05 10:48:56;;;;;;;;;;;;;;;;;;5116872;27;19919;-60
2022/06/05 10:51:22;;;;;;;;;;;;;;;;;;5116726;28;20350;-62
2022/06/05 10:53:49;;;;;;;;;;;;;;;;;;5116484;28;20382;-55
2022/06/05 10:56:15;;;;;;;;;;;;;;;;;;5116534;27;19915;-58
2022/06/05 10:58:42;;;;;;;;;;;;;;;;;;5116063;28;19926;-59
2022/06/05 11:01:08;;;;;;;;;;;;;;;;;;5116619;28;19908;-60
2022/06/05 11:03:34;;;;;;;;;;;;;;;;;;5116952;28;19907;-61
2022/06/05 11:06:01;;;;;;;;;;;;;;;;;;5116149;28;20262;-53
2022/06/05 11:08:27;;;;;;;;;;;;;;;;;;5116000;28;19995;-61
2022/06/05 11:13:45;;;;;;;;;;;;;;;;;;5116643;28;19914;-57
2022/06/05 11:16:11;;;;;;;;;;;;;;;;;;5116514;28;19915;-59
2022/06/05 11:18:38;;;;;;;;;;;;;;;;;;5116492;28;19961;-55
2022/06/05 11:21:05;;;;;;;;;;;;;;;;;;5116329;28;19912;-64
2022/06/05 11:23:32;;;;;;;;;;;;;;;;;;5116467;28;20385;-61
2022/06/05 11:25:59;;;;;;;;;;;;;;;;;;5116024;28;19915;-51
2022/06/05 11:28:25;;;;;;;;;;;;;;;;;;5097313;28;19915;-52
2022/06/05 11:30:52;;;;;;;;;;;;;;;;;;5095768;28;20278;-54
2022/06/05 11:33:18;;;;;;;;;;;;;;;;;;5095760;28;19915;-53
2022/06/05 11:35:45;;;;;;;;;;;;;;;;;;5095194;28;19908;-52
2022/06/05 11:38:11;;;;;;;;;;;;;;;;;;5093269;28;19920;-56
2022/06/05 11:40:38;;;;;;;;;;;;;;;;;;5095128;28;20315;-55
2022/06/05 11:43:04;;;;;;;;;;;;;;;;;;5094867;28;19908;-60
2022/06/05 11:45:31;;;;;;;;;;;;;;;;;;5094918;28;19929;-49
2022/06/05 11:47:58;;;;;;;;;;;;;;;;;;5093804;28;19908;-57
2022/06/05 11:50:24;;;;;;;;;;;;;;;;;;5094877;28;19962;-42
2022/06/05 11:52:51;;;;;;;;;;;;;;;;;;5095062;28;19918;-51
2022/06/05 11:55:20;;;;;;;;;;;;;;;;;;5094344;28;19909;-42
2022/06/05 11:57:48;;;;;;;;;;;;;;;;;;5095101;28;20015;-58
2022/06/05 12:00:17;;;;;;;;;;;;;;;;;;5095049;28;20320;-58
2022/06/05 12:02:44;;;;;;;;;;;;;;;;;;5094500;28;20008;-51
2022/06/05 12:05:10;;;;;;;;;;;;;;;;;;5094940;28;19951;-55
2022/06/05 12:07:37;;;;;;;;;;;;;;;;;;5094886;28;19916;-59
2022/06/05 12:10:03;;;;;;;;;;;;;;;;;;5095060;28;20328;-59
2022/06/05 12:12:29;;;;;;;;;;;;;;;;;;5094500;28;19908;-51
2022/06/05 12:14:56;;;;;;;;;;;;;;;;;;5094783;28;19956;-54
2022/06/05 12:17:22;;;;;;;;;;;;;;;;;;5094352;28;20430;-52
2022/06/05 12:19:49;;;;;;;;;;;;;;;;;;5094700;28;19912;-53
2022/06/05 12:22:15;;;;;;;;;;;;;;;;;;5094139;28;19926;-55
2022/06/05 12:24:42;;;;;;;;;;;;;;;;;;5094270;28;19916;-58
2022/06/05 12:27:09;;;;;;;;;;;;;;;;;;5094108;28;20263;-59
2022/06/05 12:29:35;;;;;;;;;;;;;;;;;;5094486;28;19916;-54
2022/06/05 12:32:02;;;;;;;;;;;;;;;;;;5094419;28;19904;-52
2022/06/05 12:34:29;;;;;;;;;;;;;;;;;;5094070;28;19947;-54
2022/06/05 12:36:55;;;;;;;;;;;;;;;;;;5094011;28;19908;-58
2022/06/05 12:39:22;;;;;;;;;;;;;;;;;;5094357;28;19994;-49
2022/06/05 12:41:49;;;;;;;;;;;;;;;;;;5094273;28;20007;-57
2022/06/05 12:44:15;;;;;;;;;;;;;;;;;;5094345;28;19915;-59
2022/06/05 12:46:42;;;;;;;;;;;;;;;;;;5093770;28;20243;-55
2022/06/05 12:49:09;;;;;;;;;;;;;;;;;;5093424;28;19955;-45
2022/06/05 12:51:35;;;;;;;;;;;;;;;;;;5092529;28;20377;-57
2022/06/05 12:54:02;;;;;;;;;;;;;;;;;;5094073;28;19912;-50
2022/06/05 12:56:30;;;;;;;;;;;;;;;;;;5093524;28;19908;-60
2022/06/05 12:58:56;;;;;;;;;;;;;;;;;;5093645;28;20019;-60
2022/06/05 13:01:23;;;;;;;;;;;;;;;;;;5094740;28;19908;-50
2022/06/05 13:03:49;;;;;;;;;;;;;;;;;;5093962;28;19904;-46
2022/06/05 13:06:16;;;;;;;;;;;;;;;;;;5094052;28;19908;-44
2022/06/05 13:08:42;;;;;;;;;;;;;;;;;;5093613;28;19924;-43
2022/06/05 13:11:09;;;;;;;;;;;;;;;;;;5093974;28;19927;-54
2022/06/05 13:13:37;;;;;;;;;;;;;;;;;;5093802;28;19962;-55
2022/06/05 13:16:04;;;;;;;;;;;;;;;;;;5094096;28;19999;-39
2022/06/05 13:18:32;;;;;;;;;;;;;;;;;;5092871;28;20007;-40
2022/06/05 13:20:58;;;;;;;;;;;;;;;;;;5093636;28;19935;-48
2022/06/05 13:23:25;;;;;;;;;;;;;;;;;;5093697;28;19914;-42
2022/06/05 13:25:54;;;;;;;;;;;;;;;;;;5093036;28;20260;-43
2022/06/05 13:28:21;;;;;;;;;;;;;;;;;;5093039;28;19908;-57
2022/06/05 13:30:47;;;;;;;;;;;;;;;;;;5093272;28;20334;-49
2022/06/05 13:33:14;;;;;;;;;;;;;;;;;;5093422;28;20003;-56
2022/06/05 13:35:40;;;;;;;;;;;;;;;;;;5093557;28;19914;-44
2022/06/05 13:38:07;;;;;;;;;;;;;;;;;;5093384;28;19977;-50
2022/06/05 13:40:34;;;;;;;;;;;;;;;;;;5093127;28;19961;-46
2022/06/05 13:43:00;;;;;;;;;;;;;;;;;;5093462;28;19931;-51
2022/06/05 13:45:27;;;;;;;;;;;;;;;;;;5093399;28;19908;-62
2022/06/05 13:47:53;;;;;;;;;;;;;;;;;;5092927;28;19983;-48
2022/06/05 13:50:20;;;;;;;;;;;;;;;;;;5093273;28;19908;-50
2022/06/05 13:52:46;;;;;;;;;;;;;;;;;;5092927;28;20428;-53
2022/06/05 13:55:13;;;;;;;;;;;;;;;;;;5093172;28;19951;-56
2022/06/05 13:57:39;;;;;;;;;;;;;;;;;;5092565;28;19912;-53
2022/06/05 14:00:06;;;;;;;;;;;;;;;;;;5093350;28;19912;-46
2022/06/05 14:02:33;;;;;;;;;;;;;;;;;;5092523;28;19908;-56
2022/06/05 14:04:59;;;;;;;;;;;;;;;;;;5092755;28;19908;-52
2022/06/05 14:07:26;;;;;;;;;;;;;;;;;;5092549;28;19920;-49
2022/06/05 14:09:54;;;;;;;;;;;;;;;;;;5092775;28;19939;-55
2022/06/05 14:12:20;;;;;;;;;;;;;;;;;;5092748;28;19909;-57
2022/06/05 14:14:47;;;;;;;;;;;;;;;;;;5092743;28;19996;-51
2022/06/05 14:17:14;;;;;;;;;;;;;;;;;;5092620;28;20033;-43
2022/06/05 14:19:40;;;;;;;;;;;;;;;;;;5092580;28;19952;-50
2022/06/05 14:22:07;;;;;;;;;;;;;;;;;;5092662;28;19915;-54
2022/06/05 14:24:34;;;;;;;;;;;;;;;;;;5092278;28;19908;-59
2022/06/05 14:27:00;;;;;;;;;;;;;;;;;;5092739;28;19977;-53
2022/06/05 14:29:27;;;;;;;;;;;;;;;;;;5092516;28;19908;-50
2022/06/05 14:31:53;;;;;;;;;;;;;;;;;;5092570;28;19909;-53
2022/06/05 14:34:20;;;;;;;;;;;;;;;;;;5092593;28;20351;-56
2022/06/05 14:36:50;;;;;;;;;;;;;;;;;;5092347;28;19909;-56
2022/06/05 14:39:17;;;;;;;;;;;;;;;;;;5092331;28;19928;-56
2022/06/05 14:41:45;;;;;;;;;;;;;;;;;;5093033;28;20283;-57
2022/06/05 14:44:11;;;;;;;;;;;;;;;;;;5092840;28;19912;-58
2022/06/05 14:46:38;;;;;;;;;;;;;;;;;;5092517;28;20003;-60
2022/06/05 14:49:04;;;;;;;;;;;;;;;;;;5092396;28;19912;-56
2022/06/05 14:51:31;;;;;;;;;;;;;;;;;;5092543;28;20294;-60
2022/06/05 14:53:57;;;;;;;;;;;;;;;;;;5092708;28;20002;-60
2022/06/05 14:59:09;;;;;;;;;;;;;;;;;;5092492;28;19923;-58
2022/06/05 15:01:35;;;;;;;;;;;;;;;;;;5092631;28;19912;-59
2022/06/05 15:04:02;;;;;;;;;;;;;;;;;;5092489;28;20290;-60
2022/06/05 15:06:28;;;;;;;;;;;;;;;;;;5092283;28;19908;-56
2022/06/05 15:08:55;;;;;;;;;;;;;;;;;;5092281;28;19920;-59
2022/06/05 15:11:21;;;;;;;;;;;;;;;;;;5092381;28;19908;-60
2022/06/05 15:13:48;;;;;;;;;;;;;;;;;;5094292;28;19915;-55
2022/06/05 15:16:14;;;;;;;;;;;;;;;;;;5096218;28;19912;-58
2022/06/05 15:18:40;;;;;;;;;;;;;;;;;;5095512;28;19916;-57
2022/06/05 15:21:07;;;;;;;;;;;;;;;;;;5096416;28;19916;-51
2022/06/05 15:23:34;;;;;;;;;;;;;;;;;;5096015;28;20362;-54
2022/06/05 15:26:00;;;;;;;;;;;;;;;;;;5096287;28;19909;-59
2022/06/05 15:28:27;;;;;;;;;;;;;;;;;;5095443;28;19908;-58
2022/06/05 15:30:53;;;;;;;;;;;;;;;;;;5095937;28;20270;-45
2022/06/05 15:33:20;;;;;;;;;;;;;;;;;;5095730;28;19970;-46
2022/06/05 15:35:46;;;;;;;;;;;;;;;;;;5095647;28;19908;-52
2022/06/05 15:38:13;;;;;;;;;;;;;;;;;;5095947;28;19923;-59
2022/06/05 15:40:42;;;;;;;;;;;;;;;;;;5095170;28;19919;-49
2022/06/05 15:43:08;;;;;;;;;;;;;;;;;;5095673;28;19908;-55
2022/06/05 15:45:35;;;;;;;;;;;;;;;;;;5095537;28;19940;-60
2022/06/05 15:48:02;;;;;;;;;;;;;;;;;;5095204;28;20359;-54
2022/06/05 15:50:28;;;;;;;;;;;;;;;;;;5095194;28;19915;-51
2022/06/05 15:52:55;;;;;;;;;;;;;;;;;;5095434;28;19961;-55
2022/06/05 15:55:21;;;;;;;;;;;;;;;;;;5095694;28;19962;-48
2022/06/05 16:00:34;;;;;;;;;;;;;;;;;;5094951;28;19919;-55
2022/06/05 16:03:01;;;;;;;;;;;;;;;;;;5095211;28;20307;-57
2022/06/05 16:05:27;;;;;;;;;;;;;;;;;;5095461;28;19908;-56
2022/06/05 16:07:54;;;;;;;;;;;;;;;;;;5095033;28;19955;-59
2022/06/05 16:10:20;;;;;;;;;;;;;;;;;;5094996;28;19908;-59
2022/06/05 16:12:47;;;;;;;;;;;;;;;;;;5095058;28;19908;-53
2022/06/05 16:15:13;;;;;;;;;;;;;;;;;;5095125;28;19908;-57
2022/06/05 16:17:40;;;;;;;;;;;;;;;;;;5094826;28;19912;-54
2022/06/05 16:20:06;;;;;;;;;;;;;;;;;;5094759;28;19908;-49
2022/06/05 16:22:33;;;;;;;;;;;;;;;;;;5094754;28;20044;-54
2022/06/05 16:24:59;;;;;;;;;;;;;;;;;;5094309;28;20278;-53
2022/06/05 16:27:26;;;;;;;;;;;;;;;;;;5095031;28;19918;-58
2022/06/05 16:29:52;;;;;;;;;;;;;;;;;;5094537;28;20378;-50
2022/06/05 16:32:19;;;;;;;;;;;;;;;;;;5094506;28;19938;-55
2022/06/05 16:40:23;;;;;;;;;;;;;;;;;;5094453;28;19966;-51
2022/06/05 16:42:49;;;;;;;;;;;;;;;;;;5094528;28;19962;-59
2022/06/05 16:45:16;;;;;;;;;;;;;;;;;;5094616;28;19961;-55
2022/06/05 16:47:42;;;;;;;;;;;;;;;;;;5094199;28;19915;-56
2022/06/05 16:50:09;;;;;;;;;;;;;;;;;;5094126;28;19919;-52
2022/06/05 16:52:41;;;;;;;;;;;;;;;;;;5093968;28;19932;-55
2022/06/05 16:55:08;;;;;;;;;;;;;;;;;;5094216;28;19904;-58
2022/06/05 16:57:34;;;;;;;;;;;;;;;;;;5094143;28;19912;-59
2022/06/05 17:00:01;;;;;;;;;;;;;;;;;;5094128;28;20337;-56
2022/06/05 17:02:27;;;;;;;;;;;;;;;;;;5093742;28;20384;-51
2022/06/05 17:04:54;;;;;;;;;;;;;;;;;;5093944;28;19958;-59
2022/06/05 17:07:20;;;;;;;;;;;;;;;;;;5094059;28;19912;-40
2022/06/05 17:09:47;;;;;;;;;;;;;;;;;;5093940;28;19919;-39